createdAt,value
2022-11-16T00:01:25.236Z,36.56
2022-11-16T00:03:38.950Z,36.48
2022-11-16T00:05:52.210Z,36.87
2022-11-16T00:08:05.932Z,36.91
2022-11-16T00:10:19.560Z,37.13
2022-11-16T00:12:32.908Z,36.98
2022-11-16T00:14:46.261Z,36.55
2022-11-16T00:16:59.469Z,37.08
2022-11-16T00:19:14.400Z,37.57
2022-11-16T00:21:27.711Z,37.62
2022-11-16T00:23:42.087Z,37.59
2022-11-16T00:25:55.634Z,37.99
2022-11-16T00:28:09.152Z,37.70
2022-11-16T00:30:22.891Z,38.07
2022-11-16T00:32:36.346Z,38.16
2022-11-16T00:34:49.661Z,38.53
2022-11-16T00:37:02.953Z,38.73
2022-11-16T00:39:17.567Z,38.96
2022-11-16T00:41:32.840Z,38.72
2022-11-16T00:43:46.141Z,38.73
2022-11-16T00:46:00.043Z,38.71
2022-11-16T00:48:14.002Z,38.87
2022-11-16T00:50:27.426Z,39.12
2022-11-16T00:52:40.911Z,39.31
2022-11-16T00:54:54.171Z,38.93
2022-11-16T00:57:07.518Z,39.03
2022-11-16T00:59:20.775Z,39.30
2022-11-16T01:01:34.207Z,39.26
2022-11-16T01:03:48.899Z,39.30
2022-11-16T01:06:06.543Z,39.50
2022-11-16T01:08:19.910Z,39.51
2022-11-16T01:10:34.878Z,39.77
2022-11-16T01:12:49.188Z,39.86
2022-11-16T01:15:02.763Z,39.96
2022-11-16T01:17:16.540Z,40.04
2022-11-16T01:19:29.868Z,40.04
2022-11-16T01:21:43.280Z,40.42
2022-11-16T01:23:58.274Z,40.55
2022-11-16T01:26:12.016Z,40.44
2022-11-16T01:28:27.370Z,40.19
2022-11-16T01:30:40.778Z,40.16
2022-11-16T01:32:56.040Z,40.25
2022-11-16T01:35:10.022Z,40.06
2022-11-16T01:37:23.709Z,39.73
2022-11-16T01:39:37.712Z,39.89
2022-11-16T01:41:51.212Z,40.07
2022-11-16T01:44:06.063Z,40.19
2022-11-16T01:46:33.043Z,40.32
2022-11-16T01:48:47.745Z,40.53
2022-11-16T01:51:01.745Z,40.75
2022-11-16T01:53:17.332Z,40.55
2022-11-16T01:55:40.741Z,40.57
2022-11-16T01:58:21.697Z,40.44
2022-11-16T02:00:37.183Z,40.20
2022-11-16T02:03:03.538Z,40.82
2022-11-16T02:05:36.955Z,40.90
2022-11-16T02:08:17.774Z,41.12
2022-11-16T02:10:47.242Z,41.45
2022-11-16T02:13:17.152Z,41.70
2022-11-16T02:15:36.832Z,41.27
2022-11-16T02:18:18.885Z,41.10
2022-11-16T02:20:57.160Z,41.13
2022-11-16T02:23:30.073Z,41.13
2022-11-16T02:25:42.683Z,40.88
2022-11-16T02:28:18.163Z,40.67
2022-11-16T02:30:31.455Z,40.50
2022-11-16T02:32:52.099Z,40.66
2022-11-16T02:35:11.395Z,40.85
2022-11-16T02:37:27.894Z,40.84
2022-11-16T02:39:43.638Z,41.01
2022-11-16T02:41:58.138Z,40.86
2022-11-16T02:44:15.614Z,40.88
2022-11-16T02:46:34.717Z,40.84
2022-11-16T02:48:52.181Z,40.98
2022-11-16T02:51:07.782Z,41.00
2022-11-16T02:53:21.618Z,41.31
2022-11-16T02:55:39.901Z,41.31
2022-11-16T02:57:58.012Z,41.66
2022-11-16T03:00:15.740Z,41.79
2022-11-16T03:02:33.783Z,41.83
2022-11-16T03:04:50.806Z,41.73
2022-11-16T03:07:07.621Z,41.52
2022-11-16T03:09:25.044Z,41.36
2022-11-16T03:11:57.958Z,41.55
2022-11-16T03:14:14.890Z,41.00
2022-11-16T03:16:35.017Z,40.95
2022-11-16T03:18:50.665Z,41.03
2022-11-16T03:21:13.548Z,40.97
2022-11-16T03:23:29.083Z,40.61
2022-11-16T03:25:46.876Z,40.72
2022-11-16T03:28:05.800Z,40.65
2022-11-16T03:30:23.984Z,40.43
2022-11-16T03:32:45.456Z,40.31
2022-11-16T03:35:04.177Z,40.33
2022-11-16T03:37:18.900Z,40.02
2022-11-16T03:39:37.249Z,39.79
2022-11-16T03:41:53.277Z,39.23
2022-11-16T03:44:08.129Z,39.16
2022-11-16T03:46:22.344Z,38.97
2022-11-16T03:48:41.527Z,38.80
2022-11-16T03:50:59.219Z,38.88
2022-11-16T03:53:13.557Z,38.83
2022-11-16T03:55:26.944Z,38.97
2022-11-16T03:57:40.571Z,39.05
2022-11-16T03:59:54.107Z,39.04
2022-11-16T04:02:07.299Z,39.14
2022-11-16T04:04:36.418Z,39.10
2022-11-16T04:07:06.324Z,39.08
2022-11-16T04:09:36.000Z,39.34
2022-11-16T04:12:06.693Z,39.57
2022-11-16T04:14:43.115Z,39.41
2022-11-16T04:17:14.613Z,39.66
2022-11-16T04:19:45.492Z,39.76
2022-11-16T04:22:20.578Z,39.97
2022-11-16T04:24:38.340Z,39.94
2022-11-16T04:27:10.341Z,39.96
2022-11-16T04:29:25.172Z,40.12
2022-11-16T04:31:54.463Z,40.01
2022-11-16T04:34:24.142Z,40.25
2022-11-16T04:36:55.701Z,40.50
2022-11-16T04:39:09.187Z,40.39
2022-11-16T04:41:38.875Z,40.21
2022-11-16T04:43:52.302Z,40.19
2022-11-16T04:46:23.986Z,40.13
2022-11-16T04:48:37.561Z,39.91
2022-11-16T04:50:51.761Z,39.78
2022-11-16T04:53:05.279Z,39.87
2022-11-16T04:55:26.081Z,39.64
2022-11-16T04:57:39.624Z,39.70
2022-11-16T04:59:53.668Z,39.70
2022-11-16T05:02:14.058Z,39.87
2022-11-16T05:04:32.522Z,40.03
2022-11-16T05:06:47.124Z,40.00
2022-11-16T05:09:00.790Z,40.04
2022-11-16T05:11:14.442Z,39.96
2022-11-16T05:13:28.348Z,40.18
2022-11-16T05:15:41.605Z,39.94
2022-11-16T05:17:56.878Z,40.00
2022-11-16T05:20:30.111Z,40.37
2022-11-16T05:22:47.829Z,40.36
2022-11-16T05:25:01.753Z,40.25
2022-11-16T05:27:18.036Z,40.35
2022-11-16T05:29:32.282Z,40.48
2022-11-16T05:31:45.765Z,40.45
2022-11-16T05:33:59.201Z,40.59
2022-11-16T05:36:14.937Z,40.53
2022-11-16T05:38:28.591Z,40.33
2022-11-16T05:40:43.093Z,40.41
2022-11-16T05:42:57.013Z,40.38
2022-11-16T05:45:11.662Z,40.45
2022-11-16T05:47:25.875Z,40.46
2022-11-16T05:49:39.882Z,40.31
2022-11-16T05:51:54.360Z,40.25
2022-11-16T05:54:09.146Z,40.28
2022-11-16T05:56:22.900Z,40.25
2022-11-16T05:58:36.880Z,40.28
2022-11-16T06:00:52.609Z,40.25
2022-11-16T06:03:06.121Z,40.43
2022-11-16T06:05:19.854Z,40.48
2022-11-16T06:07:33.602Z,40.30
2022-11-16T06:09:47.652Z,40.33
2022-11-16T06:12:04.640Z,40.36
2022-11-16T06:14:18.965Z,40.42
2022-11-16T06:16:32.507Z,40.54
2022-11-16T06:18:48.486Z,40.45
2022-11-16T06:21:05.114Z,40.44
2022-11-16T06:23:18.439Z,40.19
2022-11-16T06:25:32.210Z,40.23
2022-11-16T06:27:45.531Z,40.17
2022-11-16T06:30:02.124Z,40.31
2022-11-16T06:32:16.042Z,40.44
2022-11-16T06:34:29.300Z,40.56
2022-11-16T06:36:42.539Z,40.59
2022-11-16T06:38:55.824Z,40.80
2022-11-16T06:41:09.435Z,40.73
2022-11-16T06:43:26.886Z,40.95
2022-11-16T06:45:40.480Z,41.02
2022-11-16T06:47:53.832Z,41.11
2022-11-16T06:50:07.916Z,40.95
2022-11-16T06:52:21.304Z,40.79
2022-11-16T06:54:34.677Z,40.60
2022-11-16T06:56:48.844Z,40.43
2022-11-16T06:59:04.017Z,40.50
2022-11-16T07:01:18.527Z,40.53
2022-11-16T07:03:32.958Z,40.71
2022-11-16T07:05:48.015Z,40.60
2022-11-16T07:08:02.577Z,40.73
2022-11-16T07:10:17.224Z,40.78
2022-11-16T07:12:30.767Z,40.76
2022-11-16T07:14:44.330Z,40.82
2022-11-16T07:17:00.343Z,41.12
2022-11-16T07:19:15.464Z,41.12
2022-11-16T07:21:28.998Z,40.85
2022-11-16T07:23:43.980Z,41.08
2022-11-16T07:26:02.883Z,40.81
2022-11-16T07:28:23.544Z,40.81
2022-11-16T07:30:36.693Z,40.67
2022-11-16T07:32:59.989Z,40.68
2022-11-16T07:35:36.214Z,40.28
2022-11-16T07:37:49.654Z,39.81
2022-11-16T07:40:03.413Z,39.96
2022-11-16T07:42:16.987Z,39.96
2022-11-16T07:44:53.135Z,39.94
2022-11-16T07:47:06.426Z,39.73
2022-11-16T07:49:23.216Z,39.82
2022-11-16T07:51:43.001Z,39.74
2022-11-16T07:54:03.957Z,39.47
2022-11-16T07:56:17.773Z,39.56
2022-11-16T07:58:31.658Z,39.61
2022-11-16T08:00:45.314Z,39.62
2022-11-16T08:03:00.142Z,39.58
2022-11-16T08:05:14.858Z,39.67
2022-11-16T08:07:28.382Z,39.74
2022-11-16T08:09:44.349Z,39.84
2022-11-16T08:12:00.231Z,39.96
2022-11-16T08:14:14.850Z,39.77
2022-11-16T08:16:28.996Z,40.07
2022-11-16T08:18:49.938Z,39.96
2022-11-16T08:21:04.970Z,39.90
2022-11-16T08:23:18.496Z,39.85
2022-11-16T08:25:32.287Z,39.78
2022-11-16T08:27:45.777Z,39.69
2022-11-16T08:29:59.342Z,39.72
2022-11-16T08:32:12.834Z,39.68
2022-11-16T08:34:26.315Z,39.84
2022-11-16T08:36:43.973Z,39.78
2022-11-16T08:38:59.250Z,39.83
2022-11-16T08:41:14.715Z,39.80
2022-11-16T08:43:28.452Z,39.76
2022-11-16T08:45:41.967Z,39.73
2022-11-16T08:48:03.448Z,39.82
2022-11-16T08:50:17.949Z,39.73
2022-11-16T08:52:31.338Z,39.78
2022-11-16T08:54:45.076Z,39.69
2022-11-16T08:56:58.499Z,39.53
2022-11-16T08:59:11.836Z,39.54
2022-11-16T09:01:30.438Z,39.62
2022-11-16T09:03:44.007Z,39.38
2022-11-16T09:05:57.268Z,39.37
2022-11-16T09:08:10.791Z,39.27
2022-11-16T09:10:26.368Z,39.44
2022-11-16T09:12:40.260Z,39.60
2022-11-16T09:14:53.630Z,39.60
2022-11-16T09:17:07.110Z,39.58
2022-11-16T09:19:21.670Z,39.61
2022-11-16T09:21:38.319Z,39.66
2022-11-16T09:23:52.310Z,39.72
2022-11-16T09:26:07.485Z,39.75
2022-11-16T09:28:21.530Z,39.87
2022-11-16T09:30:34.946Z,39.99
2022-11-16T09:32:48.272Z,39.94
2022-11-16T09:35:01.572Z,39.98
2022-11-16T09:37:14.920Z,40.22
2022-11-16T09:39:31.520Z,40.33
2022-11-16T09:42:01.797Z,40.26
2022-11-16T09:44:27.715Z,40.40
2022-11-16T09:46:44.840Z,40.26
2022-11-16T09:49:00.009Z,40.28
2022-11-16T09:51:15.944Z,40.23
2022-11-16T09:53:37.180Z,40.21
2022-11-16T09:55:54.824Z,40.06
2022-11-16T09:58:15.548Z,39.87
2022-11-16T10:00:30.853Z,40.05
2022-11-16T10:02:51.297Z,39.93
2022-11-16T10:05:16.692Z,39.97
2022-11-16T10:07:35.394Z,40.07
2022-11-16T10:09:50.139Z,40.17
2022-11-16T10:12:19.237Z,40.30
2022-11-16T10:14:58.821Z,40.22
2022-11-16T10:17:21.089Z,40.17
2022-11-16T10:19:42.777Z,40.08
2022-11-16T10:22:01.803Z,40.08
2022-11-16T10:24:35.491Z,40.13
2022-11-16T10:26:54.995Z,40.12
2022-11-16T10:29:25.385Z,40.10
2022-11-16T10:31:56.029Z,40.11
2022-11-16T10:34:15.122Z,39.99
2022-11-16T10:36:32.969Z,40.09
2022-11-16T10:38:47.809Z,39.99
2022-11-16T10:41:06.265Z,39.99
2022-11-16T10:43:20.635Z,39.73
2022-11-16T10:45:41.930Z,39.85
2022-11-16T10:48:00.446Z,39.78
2022-11-16T10:50:33.110Z,39.64
2022-11-16T10:52:46.927Z,39.72
2022-11-16T10:55:00.138Z,39.59
2022-11-16T10:57:19.826Z,39.53
2022-11-16T10:59:44.997Z,39.18
2022-11-16T11:01:58.969Z,39.47
2022-11-16T11:04:26.623Z,39.58
2022-11-16T11:06:44.944Z,39.68
2022-11-16T11:08:58.155Z,39.61
2022-11-16T11:11:41.469Z,39.44
2022-11-16T11:14:05.751Z,39.48
2022-11-16T11:16:23.199Z,39.56
2022-11-16T11:18:36.653Z,39.64
2022-11-16T11:20:52.272Z,39.62
2022-11-16T11:23:14.523Z,39.25
2022-11-16T11:25:32.153Z,39.36
2022-11-16T11:27:45.867Z,39.33
2022-11-16T11:30:01.757Z,39.31
2022-11-16T11:32:24.416Z,39.26
2022-11-16T11:34:44.017Z,39.52
2022-11-16T11:37:00.686Z,39.73
2022-11-16T11:39:30.019Z,39.79
2022-11-16T11:41:47.554Z,40.75
2022-11-16T11:44:10.234Z,41.48
2022-11-16T11:47:06.447Z,41.64
2022-11-16T11:49:12.378Z,41.87
2022-11-16T11:51:31.086Z,42.03
2022-11-16T11:53:55.407Z,42.24
2022-11-16T11:56:09.449Z,42.62
2022-11-16T11:58:23.918Z,42.99
2022-11-16T12:00:45.626Z,43.14
2022-11-16T12:03:21.643Z,43.35
2022-11-16T12:05:56.559Z,43.66
2022-11-16T12:08:27.627Z,44.15
2022-11-16T12:10:52.288Z,44.32
2022-11-16T12:13:24.671Z,44.45
2022-11-16T12:15:54.486Z,44.48
2022-11-16T12:18:17.861Z,44.73
2022-11-16T12:20:41.457Z,44.62
2022-11-16T12:23:18.242Z,44.93
2022-11-16T12:25:41.022Z,44.87
2022-11-16T12:28:07.771Z,45.10
2022-11-16T12:30:24.620Z,45.26
2022-11-16T12:32:59.109Z,45.50
2022-11-16T12:35:33.553Z,45.47
2022-11-16T12:37:53.709Z,45.67
2022-11-16T12:40:24.873Z,45.72
2022-11-16T12:42:49.772Z,45.92
2022-11-16T12:45:22.062Z,45.79
2022-11-16T12:47:43.943Z,46.02
2022-11-16T12:50:20.168Z,45.92
2022-11-16T12:53:00.983Z,46.24
2022-11-16T12:55:32.999Z,46.33
2022-11-16T12:57:55.215Z,46.50
2022-11-16T13:00:13.565Z,46.75
2022-11-16T13:02:39.658Z,46.78
2022-11-16T13:04:59.571Z,46.89
2022-11-16T13:07:17.034Z,47.00
2022-11-16T13:09:34.272Z,46.86
2022-11-16T13:11:51.623Z,46.94
2022-11-16T13:14:08.711Z,47.13
2022-11-16T13:16:22.972Z,47.46
2022-11-16T13:18:41.368Z,47.78
2022-11-16T13:20:59.682Z,47.84
2022-11-16T13:23:19.153Z,47.92
2022-11-16T13:25:40.366Z,48.15
2022-11-16T13:27:59.240Z,48.18
2022-11-16T13:30:22.557Z,48.08
2022-11-16T13:32:48.902Z,48.28
2022-11-16T13:35:02.692Z,48.16
2022-11-16T13:37:47.272Z,48.16
2022-11-16T13:40:35.266Z,47.96
2022-11-16T13:43:02.178Z,47.87
2022-11-16T13:45:24.205Z,48.06
2022-11-16T13:47:37.788Z,48.12
2022-11-16T13:49:57.830Z,48.08
2022-11-16T13:52:46.230Z,48.22
2022-11-16T13:54:48.247Z,48.21
2022-11-16T13:57:03.242Z,48.03
2022-11-16T13:59:27.372Z,48.16
2022-11-16T14:02:03.043Z,48.25
2022-11-16T14:04:44.289Z,48.66
2022-11-16T14:07:05.336Z,49.02
2022-11-16T14:09:52.477Z,49.38
2022-11-16T14:12:41.962Z,49.62
2022-11-16T14:15:17.085Z,49.94
2022-11-16T14:17:55.706Z,50.28
2022-11-16T14:20:09.582Z,50.57
2022-11-16T14:22:50.791Z,50.76
2022-11-16T14:25:12.012Z,51.14
2022-11-16T14:27:32.886Z,51.58
2022-11-16T14:29:59.553Z,51.97
2022-11-16T14:32:25.644Z,52.22
2022-11-16T14:34:47.195Z,52.31
2022-11-16T14:37:01.634Z,52.50
2022-11-16T14:39:34.343Z,52.63
2022-11-16T14:41:50.109Z,52.72
2022-11-16T14:44:03.497Z,52.94
2022-11-16T14:46:24.577Z,53.04
2022-11-16T14:48:45.490Z,53.20
2022-11-16T14:51:11.874Z,53.34
2022-11-16T14:53:25.890Z,53.67
2022-11-16T14:55:47.332Z,53.85
2022-11-16T15:00:31.649Z,54.19
2022-11-16T15:02:51.376Z,54.39
2022-11-16T15:05:05.411Z,54.39
2022-11-16T15:07:20.360Z,54.63
2022-11-16T15:09:37.301Z,54.62
2022-11-16T15:12:10.622Z,54.82
2022-11-16T15:14:28.528Z,54.73
2022-11-16T15:16:54.989Z,54.85
2022-11-16T15:19:15.634Z,54.91
2022-11-16T15:21:30.498Z,55.09
2022-11-16T15:24:15.646Z,55.18
2022-11-16T15:26:28.245Z,55.25
2022-11-16T15:28:49.752Z,55.46
2022-11-16T15:31:05.705Z,55.60
2022-11-16T15:33:26.544Z,55.81
2022-11-16T15:35:41.675Z,55.91
2022-11-16T15:38:03.341Z,56.03
2022-11-16T15:40:16.665Z,56.04
2022-11-16T15:42:32.740Z,56.06
2022-11-16T15:44:47.004Z,56.13
2022-11-16T15:47:01.883Z,56.24
2022-11-16T15:49:24.261Z,56.35
2022-11-16T15:51:37.575Z,56.49
2022-11-16T15:53:52.235Z,56.59
2022-11-16T15:56:05.934Z,56.66
2022-11-16T15:58:27.650Z,56.72
2022-11-16T16:00:42.594Z,56.99
2022-11-16T16:02:58.279Z,57.05
2022-11-16T16:05:24.090Z,57.11
2022-11-16T16:07:51.414Z,57.17
2022-11-16T16:10:25.485Z,57.21
2022-11-16T16:12:50.297Z,57.46
2022-11-16T16:15:27.281Z,57.43
2022-11-16T16:17:40.694Z,57.47
2022-11-16T16:20:00.562Z,57.65
2022-11-16T16:22:28.737Z,57.74
2022-11-16T16:24:47.140Z,57.90
2022-11-16T16:27:00.494Z,58.11
2022-11-16T16:29:13.858Z,58.29
2022-11-16T16:31:27.360Z,58.59
2022-11-16T16:33:41.558Z,58.89
2022-11-16T16:35:54.948Z,58.93
2022-11-16T16:38:16.092Z,59.01
2022-11-16T16:40:29.615Z,58.92
2022-11-16T16:42:44.370Z,58.92
2022-11-16T16:44:59.252Z,59.00
2022-11-16T16:47:13.973Z,59.13
2022-11-16T16:49:32.632Z,59.27
2022-11-16T16:51:50.380Z,59.28
2022-11-16T16:54:10.584Z,59.44
2022-11-16T16:56:28.025Z,59.29
2022-11-16T16:58:51.956Z,59.35
2022-11-16T17:01:16.646Z,59.29
2022-11-16T17:03:36.883Z,59.39
2022-11-16T17:05:54.316Z,59.44
2022-11-16T17:08:12.254Z,59.30
2022-11-16T17:10:28.770Z,59.49
2022-11-16T17:12:44.868Z,59.31
2022-11-16T17:15:02.248Z,59.54
2022-11-16T17:17:26.450Z,59.61
2022-11-16T17:19:42.667Z,59.68
2022-11-16T17:22:02.625Z,59.68
2022-11-16T17:24:22.115Z,59.85
2022-11-16T17:26:38.374Z,60.04
2022-11-16T17:29:00.730Z,60.01
2022-11-16T17:31:18.980Z,59.82
2022-11-16T17:33:43.919Z,60.09
2022-11-16T17:36:10.984Z,60.25
2022-11-16T17:38:25.388Z,60.18
2022-11-16T17:40:45.538Z,60.43
2022-11-16T17:43:07.939Z,60.55
2022-11-16T17:45:34.272Z,60.81
2022-11-16T17:47:55.853Z,61.01
2022-11-16T17:50:17.634Z,61.15
2022-11-16T17:52:35.791Z,61.19
2022-11-16T17:55:06.465Z,61.40
2022-11-16T17:57:25.907Z,61.46
2022-11-16T17:59:42.286Z,61.53
2022-11-16T18:01:56.475Z,61.51
2022-11-16T18:04:13.757Z,61.46
2022-11-16T18:06:30.057Z,61.47
2022-11-16T18:08:44.874Z,61.03
2022-11-16T18:10:58.801Z,60.84
2022-11-16T18:13:12.688Z,61.38
2022-11-16T18:15:28.778Z,61.91
2022-11-16T18:17:43.717Z,62.17
2022-11-16T18:19:57.126Z,62.31
2022-11-16T18:22:10.494Z,62.35
2022-11-16T18:24:23.977Z,62.56
2022-11-16T18:26:38.016Z,62.70
2022-11-16T18:28:52.972Z,63.20
2022-11-16T18:31:11.696Z,63.41
2022-11-16T18:33:30.789Z,63.44
2022-11-16T18:35:44.119Z,63.74
2022-11-16T18:37:57.783Z,63.85
2022-11-16T18:40:13.473Z,64.09
2022-11-16T18:42:26.788Z,64.14
2022-11-16T18:44:40.114Z,64.23
2022-11-16T18:46:53.357Z,64.68
2022-11-16T18:49:06.519Z,64.69
2022-11-16T18:51:20.701Z,64.82
2022-11-16T18:53:35.541Z,65.08
2022-11-16T18:55:57.584Z,65.06
2022-11-16T18:58:28.858Z,65.23
2022-11-16T19:00:44.623Z,65.49
2022-11-16T19:02:57.926Z,65.48
2022-11-16T19:05:12.085Z,65.70
2022-11-16T19:07:25.422Z,65.69
2022-11-16T19:09:38.669Z,65.55
2022-11-16T19:11:52.876Z,66.02
2022-11-16T19:14:08.732Z,65.91
2022-11-16T19:16:22.044Z,66.08
2022-11-16T19:18:35.312Z,66.20
2022-11-16T19:20:48.534Z,66.16
2022-11-16T19:23:03.355Z,66.49
2022-11-16T19:25:17.146Z,66.45
2022-11-16T19:27:30.449Z,66.59
2022-11-16T19:29:43.678Z,66.88
2022-11-16T19:31:56.968Z,67.13
2022-11-16T19:34:11.496Z,67.28
2022-11-16T19:36:25.287Z,67.40
2022-11-16T19:38:38.725Z,67.79
2022-11-16T19:40:52.975Z,67.77
2022-11-16T19:43:06.212Z,67.84
2022-11-16T19:45:19.877Z,67.98
2022-11-16T19:47:33.252Z,68.18
2022-11-16T19:49:47.418Z,68.18
2022-11-16T19:52:01.391Z,68.36
2022-11-16T19:54:16.102Z,68.46
2022-11-16T19:56:30.374Z,68.34
2022-11-16T19:58:44.250Z,68.50
2022-11-16T20:01:03.335Z,68.68
2022-11-16T20:03:16.579Z,68.60
2022-11-16T20:05:31.359Z,68.77
2022-11-16T20:07:46.013Z,69.14
2022-11-16T20:09:59.821Z,69.54
2022-11-16T20:12:13.330Z,69.15
2022-11-16T20:14:26.664Z,69.30
2022-11-16T20:16:41.808Z,69.53
2022-11-16T20:18:55.809Z,69.65
2022-11-16T20:21:10.298Z,69.47
2022-11-16T20:23:23.517Z,69.57
2022-11-16T20:25:36.851Z,69.63
2022-11-16T20:27:50.135Z,69.94
2022-11-16T20:30:09.050Z,69.75
2022-11-16T20:32:23.516Z,69.95
2022-11-16T20:34:36.793Z,69.86
2022-11-16T20:36:52.147Z,69.94
2022-11-16T20:39:05.707Z,69.90
2022-11-16T20:41:19.657Z,70.20
2022-11-16T20:43:33.428Z,70.54
2022-11-16T20:45:46.822Z,69.81
2022-11-16T20:48:02.246Z,69.75
2022-11-16T20:50:16.026Z,69.58
2022-11-16T20:52:29.209Z,70.14
2022-11-16T20:54:42.544Z,70.17
2022-11-16T20:56:55.814Z,70.96
2022-11-16T20:59:09.065Z,70.81
2022-11-16T21:01:29.287Z,70.58
2022-11-16T21:03:43.663Z,70.83
2022-11-16T21:05:58.463Z,70.69
2022-11-16T21:08:12.101Z,70.62
2022-11-16T21:10:26.102Z,70.20
2022-11-16T21:12:55.832Z,70.11
2022-11-16T21:15:09.737Z,70.30
2022-11-16T21:17:23.076Z,70.13
2022-11-16T21:19:36.889Z,69.85
2022-11-16T21:21:50.146Z,69.84
2022-11-16T21:24:03.564Z,69.68
2022-11-16T21:26:17.956Z,69.52
2022-11-16T21:28:31.250Z,69.12
2022-11-16T21:30:44.490Z,68.92
2022-11-16T21:32:57.827Z,68.71
2022-11-16T21:35:12.823Z,68.82
2022-11-16T21:37:25.998Z,68.76
2022-11-16T21:39:39.204Z,68.18
2022-11-16T21:41:52.400Z,68.30
2022-11-16T21:44:05.624Z,68.18
2022-11-16T21:46:20.076Z,67.75
2022-11-16T21:48:34.218Z,67.92
2022-11-16T21:50:48.739Z,67.86
2022-11-16T21:53:02.096Z,67.59
2022-11-16T21:55:15.881Z,67.60
2022-11-16T21:57:29.168Z,67.50
2022-11-16T21:59:45.427Z,67.50
2022-11-16T22:02:04.803Z,67.19
2022-11-16T22:04:34.486Z,66.87
2022-11-16T22:07:04.079Z,66.99
2022-11-16T22:09:18.119Z,67.23
2022-11-16T22:11:31.566Z,67.12
2022-11-16T22:13:45.385Z,67.21
2022-11-16T22:15:59.024Z,67.19
2022-11-16T22:18:12.409Z,66.48
2022-11-16T22:20:26.137Z,66.16
2022-11-16T22:22:39.413Z,66.45
2022-11-16T22:24:52.740Z,66.38
2022-11-16T22:27:06.274Z,66.48
2022-11-16T22:29:19.508Z,66.63
2022-11-16T22:31:33.836Z,66.79
2022-11-16T22:33:47.257Z,66.86
2022-11-16T22:36:00.371Z,67.09
2022-11-16T22:38:13.528Z,67.19
2022-11-16T22:40:26.838Z,66.95
2022-11-16T22:42:39.987Z,66.92
2022-11-16T22:44:53.150Z,67.20
2022-11-16T22:47:06.733Z,67.36
2022-11-16T22:49:20.054Z,67.33
2022-11-16T22:51:34.124Z,67.42
2022-11-16T22:53:47.296Z,67.00
2022-11-16T22:56:06.105Z,67.03
2022-11-16T22:58:19.282Z,66.78
2022-11-16T23:00:34.191Z,66.73
2022-11-16T23:02:49.615Z,67.07
2022-11-16T23:05:02.879Z,66.91
2022-11-16T23:07:16.146Z,66.88
2022-11-16T23:09:29.518Z,66.94
2022-11-16T23:11:59.221Z,67.14
2022-11-16T23:14:33.009Z,66.86
2022-11-16T23:16:47.567Z,67.05
2022-11-16T23:19:01.437Z,66.74
2022-11-16T23:21:31.658Z,66.92
2022-11-16T23:24:06.574Z,66.71
2022-11-16T23:26:43.753Z,66.68
2022-11-16T23:28:56.980Z,66.30
2022-11-16T23:31:10.319Z,66.25
2022-11-16T23:33:45.641Z,66.15
2022-11-16T23:35:59.247Z,66.58
2022-11-16T23:38:13.597Z,66.91
2022-11-16T23:40:29.147Z,67.07
2022-11-16T23:43:03.553Z,67.01
2022-11-16T23:45:22.278Z,67.24
2022-11-16T23:47:37.291Z,67.35
2022-11-16T23:49:50.592Z,67.23
2022-11-16T23:52:03.982Z,67.11
2022-11-16T23:54:17.242Z,67.40
2022-11-16T23:56:34.834Z,67.40
2022-11-16T23:58:52.464Z,67.82
